createdAt,value
2023-04-10T00:02:34.446Z,26.77
2023-04-10T00:05:37.485Z,31.07
2023-04-10T00:08:40.587Z,29.67
2023-04-10T00:11:43.532Z,27.67
2023-04-10T00:14:46.523Z,30.10
2023-04-10T00:17:55.060Z,28.27
2023-04-10T00:20:58.126Z,27.23
2023-04-10T00:24:01.103Z,24.00
2023-04-10T00:27:04.119Z,29.77
2023-04-10T00:30:07.972Z,27.98
2023-04-10T00:33:11.028Z,26.92
2023-04-10T00:36:14.165Z,26.90
2023-04-10T00:39:17.192Z,28.97
2023-04-10T00:42:20.172Z,25.45
2023-04-10T00:45:23.126Z,25.77
2023-04-10T00:48:26.385Z,24.23
2023-04-10T00:51:30.068Z,22.97
2023-04-10T00:54:33.215Z,23.93
2023-04-10T00:57:36.284Z,23.70
2023-04-10T01:00:39.313Z,23.17
2023-04-10T01:03:42.752Z,23.15
2023-04-10T01:06:58.625Z,25.30
2023-04-10T01:10:12.365Z,23.07
2023-04-10T01:13:41.663Z,23.27
2023-04-10T01:16:51.699Z,21.38
2023-04-10T01:20:14.739Z,24.80
2023-04-10T01:23:41.122Z,24.40
2023-04-10T01:27:06.936Z,24.03
2023-04-10T01:30:11.610Z,20.52
2023-04-10T01:33:18.530Z,22.48
2023-04-10T01:36:26.437Z,25.88
2023-04-10T01:39:29.544Z,24.87
2023-04-10T01:42:36.730Z,27.07
2023-04-10T01:45:41.872Z,23.58
2023-04-10T01:48:46.065Z,25.92
2023-04-10T01:51:49.032Z,22.70
2023-04-10T01:54:52.207Z,25.77
2023-04-10T01:58:01.871Z,22.57
2023-04-10T02:01:05.845Z,24.75
2023-04-10T02:04:08.950Z,23.27
2023-04-10T02:07:24.658Z,24.85
2023-04-10T02:10:37.724Z,20.87
2023-04-10T02:13:40.982Z,22.40
2023-04-10T02:16:44.007Z,23.67
2023-04-10T02:19:48.424Z,23.85
2023-04-10T02:22:52.189Z,23.30
2023-04-10T02:25:57.153Z,25.20
2023-04-10T02:29:00.144Z,23.33
2023-04-10T02:32:04.625Z,24.73
2023-04-10T02:35:08.170Z,22.65
2023-04-10T02:38:16.830Z,25.05
2023-04-10T02:41:20.295Z,26.37
2023-04-10T02:44:23.424Z,23.30
2023-04-10T02:47:27.119Z,24.50
2023-04-10T02:50:32.335Z,20.75
2023-04-10T02:53:36.597Z,24.00
2023-04-10T02:56:39.719Z,24.70
2023-04-10T02:59:43.579Z,23.13
2023-04-10T03:02:46.755Z,21.95
2023-04-10T03:05:53.999Z,23.08
2023-04-10T03:09:03.390Z,24.02
2023-04-10T03:12:06.457Z,27.23
2023-04-10T03:15:09.737Z,24.97
2023-04-10T03:18:12.747Z,24.88
2023-04-10T03:21:17.708Z,24.38
2023-04-10T03:24:20.869Z,24.42
2023-04-10T03:27:23.952Z,24.97
2023-04-10T03:30:27.213Z,26.00
2023-04-10T03:33:30.526Z,24.40
2023-04-10T03:36:35.998Z,27.70
2023-04-10T03:39:38.982Z,23.25
2023-04-10T03:42:41.951Z,28.30
2023-04-10T03:45:45.940Z,25.13
2023-04-10T03:48:54.116Z,25.30
2023-04-10T03:51:57.615Z,28.30
2023-04-10T03:55:00.570Z,25.38
2023-04-10T03:58:04.786Z,26.50
2023-04-10T04:01:08.390Z,21.93
2023-04-10T04:04:28.174Z,23.67
2023-04-10T04:07:49.594Z,24.67
2023-04-10T04:11:21.642Z,25.63
2023-04-10T04:14:45.296Z,24.07
2023-04-10T04:18:06.723Z,22.37
2023-04-10T04:21:16.230Z,21.65
2023-04-10T04:24:39.441Z,22.13
2023-04-10T04:27:55.973Z,22.83
2023-04-10T04:31:21.316Z,23.20
2023-04-10T04:34:24.238Z,22.37
2023-04-10T04:37:42.798Z,22.95
2023-04-10T04:41:11.656Z,22.88
2023-04-10T04:44:31.279Z,27.08
2023-04-10T04:47:52.731Z,24.73
2023-04-10T04:51:09.892Z,23.87
2023-04-10T04:54:17.562Z,26.27
2023-04-10T04:57:28.426Z,25.17
2023-04-10T05:00:47.923Z,24.67
2023-04-10T05:04:09.765Z,25.17
2023-04-10T05:07:33.063Z,24.77
2023-04-10T05:11:02.129Z,25.10
2023-04-10T05:14:23.557Z,24.88
2023-04-10T05:17:37.974Z,27.35
2023-04-10T05:20:56.040Z,24.37
2023-04-10T05:24:19.191Z,23.37
2023-04-10T05:27:40.794Z,25.95
2023-04-10T05:31:02.285Z,25.02
2023-04-10T05:34:23.567Z,24.45
2023-04-10T05:37:49.652Z,28.30
2023-04-10T05:41:08.910Z,22.93
2023-04-10T05:44:27.058Z,25.98
2023-04-10T05:47:38.963Z,24.80
2023-04-10T05:51:04.477Z,25.45
2023-04-10T05:54:12.780Z,24.00
2023-04-10T05:57:45.382Z,20.23
2023-04-10T06:01:14.790Z,27.67
2023-04-10T06:04:46.912Z,26.98
2023-04-10T06:07:51.747Z,25.13
2023-04-10T06:10:54.796Z,23.77
2023-04-10T06:13:57.778Z,25.97
2023-04-10T06:17:08.001Z,23.23
2023-04-10T06:20:12.168Z,23.58
2023-04-10T06:23:15.872Z,23.45
2023-04-10T06:26:19.261Z,24.70
2023-04-10T06:29:23.103Z,22.17
2023-04-10T06:32:26.227Z,23.55
2023-04-10T06:35:29.349Z,22.42
2023-04-10T06:38:34.178Z,22.27
2023-04-10T06:41:37.295Z,23.47
2023-04-10T06:44:52.048Z,21.20
2023-04-10T06:47:55.070Z,26.17
2023-04-10T06:51:00.543Z,21.95
2023-04-10T06:54:03.520Z,23.67
2023-04-10T06:57:06.927Z,22.10
2023-04-10T07:00:10.558Z,20.10
2023-04-10T07:03:13.645Z,23.63
2023-04-10T07:06:16.708Z,23.92
2023-04-10T07:09:19.735Z,19.58
2023-04-10T07:12:22.943Z,21.47
2023-04-10T07:15:26.190Z,22.33
2023-04-10T07:18:29.151Z,19.08
2023-04-10T07:21:33.077Z,20.95
2023-04-10T07:24:36.408Z,21.70
2023-04-10T07:27:39.375Z,18.53
2023-04-10T07:30:42.455Z,19.57
2023-04-10T07:33:48.570Z,21.38
2023-04-10T07:36:51.662Z,19.65
2023-04-10T07:39:54.678Z,18.95
2023-04-10T07:42:57.643Z,21.23
2023-04-10T07:46:00.813Z,19.40
2023-04-10T07:49:04.107Z,17.67
2023-04-10T07:52:07.848Z,19.38
2023-04-10T07:55:11.151Z,17.38
2023-04-10T07:58:14.249Z,20.07
2023-04-10T08:01:17.170Z,15.60
2023-04-10T08:04:20.290Z,16.80
2023-04-10T08:07:23.362Z,15.45
2023-04-10T08:10:26.301Z,15.80
2023-04-10T08:13:29.261Z,13.97
2023-04-10T08:16:34.536Z,14.23
2023-04-10T08:19:37.488Z,14.77
2023-04-10T08:22:40.537Z,14.50
2023-04-10T08:25:43.520Z,14.27
2023-04-10T08:28:51.605Z,15.30
2023-04-10T08:31:55.701Z,14.47
2023-04-10T08:34:58.670Z,12.90
2023-04-10T08:38:12.777Z,13.15
2023-04-10T08:41:18.667Z,13.95
2023-04-10T08:44:21.621Z,12.93
2023-04-10T08:47:24.623Z,13.47
2023-04-10T08:50:27.565Z,12.57
2023-04-10T08:53:32.137Z,13.90
2023-04-10T08:56:36.212Z,12.63
2023-04-10T08:59:39.165Z,12.93
2023-04-10T09:02:42.828Z,12.30
2023-04-10T09:05:45.950Z,11.27
2023-04-10T09:08:48.849Z,13.57
2023-04-10T09:12:00.868Z,13.05
2023-04-10T09:15:04.576Z,11.13
2023-04-10T09:18:07.537Z,12.03
2023-04-10T09:21:11.616Z,13.25
2023-04-10T09:24:14.547Z,12.15
2023-04-10T09:27:36.295Z,11.82
2023-04-10T09:30:40.647Z,14.17
2023-04-10T09:33:43.672Z,12.90
2023-04-10T09:36:57.911Z,11.90
2023-04-10T09:40:01.051Z,11.07
2023-04-10T09:43:16.587Z,11.88
2023-04-10T09:46:28.813Z,11.70
2023-04-10T09:49:44.610Z,12.03
2023-04-10T09:52:47.574Z,11.77
2023-04-10T09:55:50.823Z,11.30
2023-04-10T09:58:54.200Z,12.45
2023-04-10T10:01:57.403Z,10.67
2023-04-10T10:05:00.961Z,13.80
2023-04-10T10:08:05.064Z,11.30
2023-04-10T10:11:10.181Z,12.95
2023-04-10T10:14:15.646Z,12.82
2023-04-10T10:17:20.042Z,11.70
2023-04-10T10:20:23.219Z,11.43
2023-04-10T10:23:26.536Z,11.20
2023-04-10T10:26:34.808Z,11.75
2023-04-10T10:29:37.971Z,13.60
2023-04-10T10:32:41.231Z,11.70
2023-04-10T10:35:44.255Z,12.13
2023-04-10T10:38:54.486Z,11.85
2023-04-10T10:42:12.996Z,12.07
2023-04-10T10:45:47.187Z,11.93
2023-04-10T10:48:59.672Z,18.57
2023-04-10T10:52:02.761Z,12.83
2023-04-10T10:55:25.847Z,12.25
2023-04-10T10:59:03.349Z,11.73
2023-04-10T11:02:19.261Z,12.70
2023-04-10T11:05:53.210Z,11.87
2023-04-10T11:08:56.324Z,11.43
2023-04-10T11:11:59.947Z,11.52
2023-04-10T11:15:06.045Z,11.18
2023-04-10T11:18:09.447Z,13.52
2023-04-10T11:21:19.417Z,11.17
2023-04-10T11:24:22.384Z,15.23
2023-04-10T11:27:41.704Z,11.02
2023-04-10T11:30:44.737Z,12.40
2023-04-10T11:34:00.328Z,14.90
2023-04-10T11:37:03.337Z,11.37
2023-04-10T11:40:07.028Z,12.67
2023-04-10T11:43:16.278Z,13.93
2023-04-10T11:46:19.324Z,15.35
2023-04-10T11:49:41.260Z,14.55
2023-04-10T11:52:44.568Z,15.97
2023-04-10T11:55:47.551Z,12.37
2023-04-10T11:58:53.098Z,13.90
2023-04-10T12:02:14.740Z,14.18
2023-04-10T12:05:18.234Z,14.20
2023-04-10T12:08:21.373Z,11.77
2023-04-10T12:11:25.279Z,14.83
2023-04-10T12:14:35.350Z,12.45
2023-04-10T12:17:38.436Z,14.45
2023-04-10T12:20:41.406Z,12.35
2023-04-10T12:23:44.346Z,11.00
2023-04-10T12:26:50.270Z,10.43
2023-04-10T12:29:55.069Z,10.52
2023-04-10T12:32:58.169Z,10.73
2023-04-10T12:36:01.624Z,10.65
2023-04-10T12:39:05.340Z,11.70
2023-04-10T12:42:12.536Z,9.83
2023-04-10T12:45:15.750Z,9.57
2023-04-10T12:48:24.751Z,9.43
2023-04-10T12:51:50.336Z,8.80
2023-04-10T12:54:53.807Z,11.73
2023-04-10T12:57:57.075Z,8.73
2023-04-10T13:01:07.248Z,9.60
2023-04-10T13:04:10.440Z,9.27
2023-04-10T13:07:13.506Z,10.25
2023-04-10T13:10:16.493Z,10.03
2023-04-10T13:13:19.469Z,11.27
2023-04-10T13:16:22.437Z,11.60
2023-04-10T13:19:25.407Z,9.85
2023-04-10T13:22:28.438Z,9.93
2023-04-10T13:25:33.516Z,10.53
2023-04-10T13:28:36.462Z,9.87
2023-04-10T13:31:39.473Z,9.90
2023-04-10T13:34:42.461Z,10.45
2023-04-10T13:37:46.115Z,9.70
2023-04-10T13:40:49.115Z,10.30
2023-04-10T13:43:52.171Z,10.17
2023-04-10T13:46:55.303Z,10.15
2023-04-10T13:49:58.286Z,10.05
2023-04-10T13:53:01.218Z,9.98
2023-04-10T13:56:04.259Z,10.30
2023-04-10T13:59:07.214Z,9.63
2023-04-10T14:02:10.256Z,9.45
2023-04-10T14:05:13.251Z,10.07
2023-04-10T14:08:16.292Z,10.43
2023-04-10T14:11:19.231Z,9.80
2023-04-10T14:14:25.361Z,10.80
2023-04-10T14:17:28.387Z,9.98
2023-04-10T14:20:31.494Z,9.75
2023-04-10T14:23:34.425Z,10.13
2023-04-10T14:26:37.494Z,9.33
2023-04-10T14:29:47.613Z,9.63
2023-04-10T14:32:58.020Z,11.25
2023-04-10T14:36:01.439Z,12.63
2023-04-10T14:39:04.459Z,9.50
2023-04-10T14:42:07.474Z,9.40
2023-04-10T14:45:10.925Z,9.40
2023-04-10T14:48:14.169Z,9.18
2023-04-10T14:51:17.271Z,9.27
2023-04-10T14:54:22.039Z,10.35
2023-04-10T14:57:25.154Z,9.47
2023-04-10T15:00:29.805Z,8.60
2023-04-10T15:03:32.838Z,9.00
2023-04-10T15:06:35.878Z,9.52
2023-04-10T15:09:38.835Z,8.45
2023-04-10T15:12:42.574Z,9.40
2023-04-10T15:15:45.857Z,9.07
2023-04-10T15:18:52.046Z,8.43
2023-04-10T15:21:55.721Z,11.75
2023-04-10T15:24:58.785Z,12.98
2023-04-10T15:28:02.149Z,10.40
2023-04-10T15:31:05.778Z,8.73
2023-04-10T15:34:09.302Z,9.55
2023-04-10T15:37:12.286Z,8.77
2023-04-10T15:40:15.389Z,8.45
2023-04-10T15:43:18.401Z,8.77
2023-04-10T15:46:21.430Z,8.80
2023-04-10T15:49:36.286Z,9.25
2023-04-10T15:52:41.048Z,9.55
2023-04-10T15:55:44.062Z,9.32
2023-04-10T15:58:46.977Z,9.73
2023-04-10T16:01:49.918Z,8.93
2023-04-10T16:04:53.218Z,12.70
2023-04-10T16:07:56.230Z,11.57
2023-04-10T16:10:59.154Z,14.32
2023-04-10T16:14:02.093Z,10.27
2023-04-10T16:17:05.135Z,12.73
2023-04-10T16:20:08.435Z,13.05
2023-04-10T16:23:11.461Z,10.75
2023-04-10T16:26:14.461Z,12.05
2023-04-10T16:29:19.853Z,11.27
2023-04-10T16:32:23.263Z,10.97
2023-04-10T16:35:26.238Z,11.75
2023-04-10T16:38:29.259Z,10.10
2023-04-10T16:41:32.219Z,10.48
2023-04-10T16:44:35.544Z,10.47
2023-04-10T16:47:39.439Z,11.17
2023-04-10T16:50:42.436Z,11.65
2023-04-10T16:53:45.528Z,11.57
2023-04-10T16:56:51.026Z,12.18
2023-04-10T17:00:00.479Z,11.90
2023-04-10T17:03:05.523Z,11.10
2023-04-10T17:06:08.562Z,11.82
2023-04-10T17:09:11.548Z,11.52
2023-04-10T17:12:14.491Z,13.35
2023-04-10T17:15:17.554Z,12.83
2023-04-10T17:18:21.713Z,17.40
2023-04-10T17:21:24.622Z,13.98
2023-04-10T17:24:27.631Z,15.18
2023-04-10T17:27:30.587Z,15.50
2023-04-10T17:30:33.737Z,16.10
2023-04-10T17:33:36.799Z,17.10
2023-04-10T17:36:39.741Z,18.33
2023-04-10T17:39:42.697Z,17.67
2023-04-10T17:42:45.986Z,15.18
2023-04-10T17:45:48.958Z,23.10
2023-04-10T17:48:52.064Z,24.57
2023-04-10T17:51:55.111Z,17.83
2023-04-10T17:54:59.301Z,17.35
2023-04-10T17:58:02.263Z,14.00
2023-04-10T18:01:05.409Z,13.00
2023-04-10T18:04:08.552Z,14.33
2023-04-10T18:07:11.590Z,13.88
2023-04-10T18:10:14.576Z,15.25
2023-04-10T18:13:17.578Z,13.90
2023-04-10T18:16:20.600Z,16.67
2023-04-10T18:19:23.576Z,18.00
2023-04-10T18:22:26.549Z,14.70
2023-04-10T18:25:29.498Z,16.15
2023-04-10T18:28:32.484Z,15.07
2023-04-10T18:31:35.419Z,14.07
2023-04-10T18:34:38.571Z,14.87
2023-04-10T18:37:42.292Z,13.38
2023-04-10T18:40:45.562Z,11.35
2023-04-10T18:43:54.228Z,12.55
2023-04-10T18:47:07.048Z,13.20
2023-04-10T18:50:11.680Z,12.77
2023-04-10T18:53:14.596Z,14.52
2023-04-10T18:56:17.536Z,12.95
2023-04-10T18:59:20.694Z,15.25
2023-04-10T19:02:23.768Z,14.87
2023-04-10T19:05:26.805Z,14.27
2023-04-10T19:08:29.785Z,14.35
2023-04-10T19:11:33.119Z,14.93
2023-04-10T19:14:37.404Z,17.17
2023-04-10T19:17:40.492Z,16.30
2023-04-10T19:20:49.930Z,15.87
2023-04-10T19:23:55.624Z,15.63
2023-04-10T19:26:59.176Z,15.20
2023-04-10T19:30:02.309Z,15.48
2023-04-10T19:33:05.320Z,18.67
2023-04-10T19:36:08.776Z,16.90
2023-04-10T19:39:11.835Z,14.20
2023-04-10T19:42:14.877Z,18.92
2023-04-10T19:45:18.269Z,13.77
2023-04-10T19:48:21.218Z,14.30
2023-04-10T19:51:24.183Z,34.10
2023-04-10T19:54:27.541Z,18.33
2023-04-10T19:57:30.492Z,16.70
2023-04-10T20:00:33.540Z,16.55
2023-04-10T20:03:37.734Z,18.53
2023-04-10T20:06:43.082Z,19.70
2023-04-10T20:09:46.004Z,18.27
2023-04-10T20:12:48.898Z,18.67
2023-04-10T20:15:51.876Z,19.95
2023-04-10T20:18:55.469Z,21.23
2023-04-10T20:22:00.760Z,29.63
2023-04-10T20:25:05.640Z,33.38
2023-04-10T20:28:08.856Z,37.90
2023-04-10T20:31:11.978Z,29.75
2023-04-10T20:34:14.977Z,29.63
2023-04-10T20:37:21.902Z,27.57
2023-04-10T20:40:24.951Z,23.20
2023-04-10T20:43:27.903Z,25.80
2023-04-10T20:46:30.912Z,22.23
2023-04-10T20:49:34.056Z,22.93
2023-04-10T20:52:37.004Z,19.40
2023-04-10T20:55:40.365Z,22.05
2023-04-10T20:58:43.299Z,24.27
2023-04-10T21:01:46.335Z,28.83
2023-04-10T21:04:51.494Z,28.10
2023-04-10T21:07:54.483Z,30.03
2023-04-10T21:10:59.477Z,27.98
2023-04-10T21:14:02.531Z,25.50
2023-04-10T21:17:05.517Z,20.77
2023-04-10T21:20:08.811Z,17.53
2023-04-10T21:23:11.760Z,21.43
2023-04-10T21:26:14.705Z,21.75
2023-04-10T21:29:17.676Z,23.30
2023-04-10T21:32:21.041Z,21.48
2023-04-10T21:35:24.784Z,18.37
2023-04-10T21:38:28.133Z,16.10
2023-04-10T21:41:31.106Z,17.20
2023-04-10T21:44:34.047Z,15.40
2023-04-10T21:47:36.970Z,15.68
2023-04-10T21:50:40.513Z,20.67
2023-04-10T21:53:43.426Z,18.83
2023-04-10T21:56:46.373Z,19.05
2023-04-10T21:59:49.321Z,23.33
2023-04-10T22:02:52.547Z,19.38
2023-04-10T22:05:55.951Z,20.67
2023-04-10T22:08:58.907Z,21.00
2023-04-10T22:12:01.878Z,21.65
2023-04-10T22:15:06.781Z,22.77
2023-04-10T22:18:09.778Z,23.35
2023-04-10T22:21:13.462Z,26.53
2023-04-10T22:24:16.406Z,22.77
2023-04-10T22:27:19.397Z,20.10
2023-04-10T22:30:22.483Z,22.63
2023-04-10T22:33:25.452Z,22.70
2023-04-10T22:36:34.544Z,27.00
2023-04-10T22:39:37.449Z,26.63
2023-04-10T22:42:40.693Z,35.90
2023-04-10T22:45:43.646Z,25.00
2023-04-10T22:48:47.070Z,24.40
2023-04-10T22:51:50.102Z,21.80
2023-04-10T22:54:53.041Z,20.70
2023-04-10T22:57:55.958Z,19.05
2023-04-10T23:00:58.870Z,21.02
2023-04-10T23:04:01.912Z,23.00
2023-04-10T23:07:05.056Z,24.33
2023-04-10T23:10:08.718Z,22.37
2023-04-10T23:13:11.660Z,21.83
2023-04-10T23:16:14.636Z,24.83
2023-04-10T23:19:18.429Z,24.48
2023-04-10T23:22:21.373Z,23.57
2023-04-10T23:25:24.386Z,21.10
2023-04-10T23:28:27.645Z,24.85
2023-04-10T23:31:30.847Z,20.80
2023-04-10T23:34:33.900Z,24.17
2023-04-10T23:37:36.835Z,24.37
2023-04-10T23:40:39.799Z,19.27
2023-04-10T23:43:42.829Z,21.05
2023-04-10T23:46:45.815Z,21.75
2023-04-10T23:49:48.827Z,20.02
2023-04-10T23:52:52.065Z,20.70
2023-04-10T23:55:54.990Z,20.10
2023-04-10T23:58:58.003Z,19.38
